createdAt,value
2019-01-08T00:01:58.569Z,9.40
2019-01-08T00:04:26.854Z,9.07
2019-01-08T00:06:55.112Z,9.17
2019-01-08T00:09:23.476Z,8.37
2019-01-08T00:11:51.732Z,10.50
2019-01-08T00:14:20.104Z,10.63
2019-01-08T00:16:48.437Z,10.13
2019-01-08T00:19:16.795Z,9.97
2019-01-08T00:21:45.055Z,6.70
2019-01-08T00:24:13.351Z,7.80
2019-01-08T00:26:41.622Z,8.97
2019-01-08T00:29:09.988Z,7.60
2019-01-08T00:31:38.253Z,8.70
2019-01-08T00:34:06.615Z,9.90
2019-01-08T00:36:34.879Z,10.10
2019-01-08T00:39:03.720Z,9.83
2019-01-08T00:41:32.049Z,8.27
2019-01-08T00:44:00.420Z,7.93
2019-01-08T00:46:28.686Z,10.93
2019-01-08T00:48:57.067Z,9.50
2019-01-08T00:51:25.331Z,10.47
2019-01-08T00:53:53.664Z,10.27
2019-01-08T00:56:21.957Z,10.90
2019-01-08T00:58:51.617Z,7.90
2019-01-08T01:01:20.337Z,10.57
2019-01-08T01:03:48.597Z,10.37
2019-01-08T01:06:16.884Z,8.77
2019-01-08T01:08:45.143Z,10.63
2019-01-08T01:11:13.513Z,7.73
2019-01-08T01:13:41.775Z,8.90
2019-01-08T01:16:10.139Z,9.37
2019-01-08T01:18:38.392Z,9.53
2019-01-08T01:21:06.697Z,10.53
2019-01-08T01:23:35.029Z,10.13
2019-01-08T01:26:03.401Z,9.07
2019-01-08T01:28:31.736Z,10.10
2019-01-08T01:31:00.105Z,7.67
2019-01-08T01:33:28.366Z,10.13
2019-01-08T01:35:56.664Z,7.77
2019-01-08T01:38:25.001Z,7.37
2019-01-08T01:40:53.372Z,8.33
2019-01-08T01:43:21.704Z,10.40
2019-01-08T01:45:50.140Z,9.70
2019-01-08T01:48:18.481Z,8.67
2019-01-08T01:50:46.842Z,6.07
2019-01-08T01:53:15.169Z,8.80
2019-01-08T01:55:43.460Z,9.70
2019-01-08T01:58:11.788Z,8.60
2019-01-08T02:00:40.086Z,8.90
2019-01-08T02:03:08.489Z,8.87
2019-01-08T02:05:36.819Z,8.27
2019-01-08T02:08:05.195Z,8.07
2019-01-08T02:10:33.529Z,5.67
2019-01-08T02:13:01.896Z,9.10
2019-01-08T02:15:30.153Z,7.50
2019-01-08T02:17:58.453Z,9.60
2019-01-08T02:20:26.796Z,9.37
2019-01-08T02:22:55.089Z,9.83
2019-01-08T02:25:23.423Z,8.17
2019-01-08T02:27:51.725Z,8.90
2019-01-08T02:30:20.063Z,8.83
2019-01-08T02:32:48.357Z,5.17
2019-01-08T02:35:16.690Z,7.93
2019-01-08T02:37:45.057Z,7.10
2019-01-08T02:40:13.319Z,9.07
2019-01-08T02:42:41.690Z,4.90
2019-01-08T02:45:10.030Z,7.97
2019-01-08T02:47:38.403Z,8.90
2019-01-08T02:50:06.737Z,8.83
2019-01-08T02:52:35.114Z,7.07
2019-01-08T02:55:03.455Z,8.50
2019-01-08T02:57:31.828Z,9.27
2019-01-08T03:00:00.160Z,8.67
2019-01-08T03:02:28.529Z,8.77
2019-01-08T03:04:56.865Z,6.60
2019-01-08T03:07:25.234Z,8.90
2019-01-08T03:09:53.501Z,5.20
2019-01-08T03:12:21.869Z,6.97
2019-01-08T03:14:50.208Z,7.83
2019-01-08T03:17:18.549Z,8.93
2019-01-08T03:19:46.846Z,9.57
2019-01-08T03:22:15.110Z,9.77
2019-01-08T03:24:43.414Z,8.27
2019-01-08T03:27:11.744Z,4.90
2019-01-08T03:29:40.037Z,8.80
2019-01-08T03:32:08.376Z,7.43
2019-01-08T03:34:36.738Z,7.27
2019-01-08T03:37:05.063Z,4.80
2019-01-08T03:39:33.374Z,7.57
2019-01-08T03:42:01.708Z,7.67
2019-01-08T03:44:30.077Z,7.63
2019-01-08T03:46:58.419Z,8.80
2019-01-08T03:49:26.710Z,8.80
2019-01-08T03:51:55.056Z,5.57
2019-01-08T03:54:23.417Z,5.93
2019-01-08T03:56:51.756Z,7.97
2019-01-08T03:59:20.123Z,9.00
2019-01-08T04:01:48.555Z,6.97
2019-01-08T04:04:16.848Z,6.63
2019-01-08T04:06:45.182Z,5.87
2019-01-08T04:09:13.476Z,8.57
2019-01-08T04:11:41.849Z,7.27
2019-01-08T04:14:10.117Z,8.73
2019-01-08T04:16:38.494Z,8.87
2019-01-08T04:19:06.828Z,8.17
2019-01-08T04:21:35.200Z,7.03
2019-01-08T04:24:05.177Z,6.93
2019-01-08T04:26:33.544Z,6.53
2019-01-08T04:29:01.807Z,4.77
2019-01-08T04:31:30.180Z,8.77
2019-01-08T04:33:58.444Z,7.63
2019-01-08T04:36:26.737Z,6.27
2019-01-08T04:38:54.997Z,6.63
2019-01-08T04:41:23.285Z,7.67
2019-01-08T04:43:51.618Z,6.97
2019-01-08T04:46:19.918Z,6.60
2019-01-08T04:48:48.257Z,6.43
2019-01-08T04:51:16.621Z,5.10
2019-01-08T04:53:44.954Z,7.27
2019-01-08T04:56:13.326Z,6.43
2019-01-08T04:58:41.588Z,7.93
2019-01-08T05:01:09.960Z,8.33
2019-01-08T05:03:38.217Z,7.23
2019-01-08T05:06:06.590Z,7.47
2019-01-08T05:08:34.916Z,6.00
2019-01-08T05:11:03.294Z,7.90
2019-01-08T05:13:31.561Z,7.43
2019-01-08T05:15:59.865Z,7.53
2019-01-08T05:18:28.213Z,7.90
2019-01-08T05:20:56.545Z,7.10
2019-01-08T05:23:24.849Z,6.70
2019-01-08T05:25:53.109Z,6.10
2019-01-08T05:28:21.473Z,5.87
2019-01-08T05:30:49.800Z,7.07
2019-01-08T05:33:18.169Z,5.77
2019-01-08T05:35:46.505Z,6.10
2019-01-08T05:38:14.874Z,5.80
2019-01-08T05:40:43.209Z,4.90
2019-01-08T05:43:11.509Z,6.40
2019-01-08T05:45:39.847Z,7.53
2019-01-08T05:48:08.215Z,5.67
2019-01-08T05:50:36.480Z,4.23
2019-01-08T05:53:04.779Z,7.17
2019-01-08T05:55:33.113Z,5.77
2019-01-08T05:58:01.409Z,5.47
2019-01-08T06:00:29.669Z,5.50
2019-01-08T06:02:58.033Z,6.47
2019-01-08T06:05:26.369Z,5.23
2019-01-08T06:07:54.732Z,5.50
2019-01-08T06:10:23.065Z,4.63
2019-01-08T06:12:51.434Z,5.23
2019-01-08T06:15:19.760Z,5.50
2019-01-08T06:17:48.055Z,3.63
2019-01-08T06:20:16.385Z,4.47
2019-01-08T06:22:44.685Z,6.10
2019-01-08T06:25:13.024Z,6.23
2019-01-08T06:27:41.389Z,4.93
2019-01-08T06:30:09.732Z,6.20
2019-01-08T06:32:38.130Z,5.07
2019-01-08T06:35:06.425Z,6.43
2019-01-08T06:37:34.685Z,5.27
2019-01-08T06:40:03.070Z,4.97
2019-01-08T06:42:31.398Z,5.50
2019-01-08T06:44:59.777Z,5.07
2019-01-08T06:47:28.097Z,6.73
2019-01-08T06:49:56.393Z,5.57
2019-01-08T06:52:24.734Z,4.10
2019-01-08T06:54:53.031Z,4.53
2019-01-08T06:57:21.361Z,5.27
2019-01-08T06:59:49.734Z,7.17
2019-01-08T07:02:17.994Z,5.87
2019-01-08T07:04:46.366Z,4.97
2019-01-08T07:07:14.621Z,5.30
2019-01-08T07:09:42.995Z,6.13
2019-01-08T07:12:11.258Z,5.57
2019-01-08T07:14:39.634Z,5.90
2019-01-08T07:17:07.895Z,5.13
2019-01-08T07:19:36.272Z,3.97
2019-01-08T07:22:04.596Z,6.13
2019-01-08T07:24:32.894Z,4.73
2019-01-08T07:27:01.150Z,5.93
2019-01-08T07:29:29.512Z,6.00
2019-01-08T07:31:57.856Z,4.93
2019-01-08T07:34:26.230Z,5.10
2019-01-08T07:36:54.569Z,5.50
2019-01-08T07:39:22.873Z,6.87
2019-01-08T07:41:51.135Z,4.00
2019-01-08T07:44:19.442Z,5.67
2019-01-08T07:46:47.769Z,4.87
2019-01-08T07:49:16.106Z,5.43
2019-01-08T07:51:44.477Z,5.77
2019-01-08T07:54:12.817Z,6.00
2019-01-08T07:56:41.118Z,7.57
2019-01-08T07:59:09.380Z,5.33
2019-01-08T08:01:37.748Z,6.33
2019-01-08T08:04:06.082Z,6.13
2019-01-08T08:06:34.458Z,5.17
2019-01-08T08:09:03.361Z,4.87
2019-01-08T08:11:31.732Z,6.03
2019-01-08T08:14:00.069Z,6.63
2019-01-08T08:16:28.449Z,5.60
2019-01-08T08:18:56.783Z,5.30
2019-01-08T08:21:25.082Z,7.40
2019-01-08T08:23:53.349Z,4.53
2019-01-08T08:26:24.385Z,5.93
2019-01-08T08:28:52.719Z,4.00
2019-01-08T08:31:21.087Z,5.90
2019-01-08T08:33:49.354Z,5.23
2019-01-08T08:36:17.725Z,6.80
2019-01-08T08:38:46.318Z,6.63
2019-01-08T08:41:14.605Z,4.90
2019-01-08T08:43:43.027Z,4.80
2019-01-08T08:46:11.341Z,6.80
2019-01-08T08:48:39.674Z,6.67
2019-01-08T08:51:08.052Z,6.23
2019-01-08T08:53:36.313Z,4.50
2019-01-08T08:56:04.689Z,6.07
2019-01-08T08:58:35.905Z,5.47
2019-01-08T09:01:07.119Z,6.93
2019-01-08T09:03:34.185Z,5.00
2019-01-08T09:06:02.552Z,6.73
2019-01-08T09:08:30.876Z,6.63
2019-01-08T09:10:59.254Z,6.47
2019-01-08T09:13:27.581Z,5.03
2019-01-08T09:15:55.952Z,6.20
2019-01-08T09:18:24.281Z,6.43
2019-01-08T09:20:52.613Z,4.33
2019-01-08T09:23:20.982Z,6.70
2019-01-08T09:25:49.314Z,6.97
2019-01-08T09:28:17.684Z,6.17
2019-01-08T09:30:46.019Z,7.17
2019-01-08T09:33:14.395Z,7.67
2019-01-08T09:35:42.649Z,7.57
2019-01-08T09:38:11.019Z,5.40
2019-01-08T09:40:39.352Z,5.93
2019-01-08T09:43:07.728Z,6.90
2019-01-08T09:45:36.066Z,6.67
2019-01-08T09:48:04.434Z,6.37
2019-01-08T09:50:32.763Z,5.50
2019-01-08T09:53:01.128Z,5.97
2019-01-08T09:55:29.456Z,4.70
2019-01-08T09:57:57.824Z,5.80
2019-01-08T10:00:26.159Z,5.50
2019-01-08T10:02:54.449Z,6.50
2019-01-08T10:05:28.218Z,4.83
2019-01-08T10:07:56.900Z,4.80
2019-01-08T10:10:25.100Z,3.73
2019-01-08T10:12:53.334Z,5.13
2019-01-08T10:15:21.612Z,5.07
2019-01-08T10:17:49.853Z,5.67
2019-01-08T10:20:18.052Z,4.33
2019-01-08T10:22:46.287Z,4.57
2019-01-08T10:25:14.574Z,5.43
2019-01-08T10:27:42.803Z,5.90
2019-01-08T10:30:11.288Z,4.33
2019-01-08T10:32:39.519Z,4.80
2019-01-08T10:35:07.729Z,5.17
2019-01-08T10:37:35.967Z,4.53
2019-01-08T10:40:05.645Z,5.30
2019-01-08T10:42:33.881Z,3.37
2019-01-08T10:45:02.124Z,5.70
2019-01-08T10:47:30.327Z,4.23
2019-01-08T10:49:58.564Z,4.70
2019-01-08T10:52:26.802Z,5.70
2019-01-08T10:54:55.003Z,4.83
2019-01-08T10:57:23.245Z,4.63
2019-01-08T10:59:51.485Z,5.83
2019-01-08T11:02:19.720Z,4.97
2019-01-08T11:04:47.924Z,3.60
2019-01-08T11:07:16.159Z,5.50
2019-01-08T11:09:44.374Z,4.97
2019-01-08T11:12:12.612Z,4.60
2019-01-08T11:14:40.815Z,4.93
2019-01-08T11:17:09.062Z,5.27
2019-01-08T11:19:37.263Z,5.10
2019-01-08T11:22:05.511Z,5.97
2019-01-08T11:24:33.712Z,5.40
2019-01-08T11:27:01.948Z,5.57
2019-01-08T11:29:30.151Z,5.00
2019-01-08T11:31:58.396Z,3.73
2019-01-08T11:34:26.635Z,5.90
2019-01-08T11:36:54.851Z,7.03
2019-01-08T11:39:23.068Z,4.97
2019-01-08T11:41:51.305Z,4.97
2019-01-08T11:44:19.518Z,4.60
2019-01-08T11:46:47.752Z,4.17
2019-01-08T11:49:15.966Z,6.13
2019-01-08T11:51:44.204Z,4.50
2019-01-08T11:54:12.404Z,5.17
2019-01-08T11:56:40.639Z,5.17
2019-01-08T11:59:08.843Z,4.73
2019-01-08T12:01:37.080Z,4.63
2019-01-08T12:04:05.296Z,4.00
2019-01-08T12:06:33.532Z,4.20
2019-01-08T12:09:01.741Z,4.70
2019-01-08T12:11:29.980Z,5.03
2019-01-08T12:13:58.559Z,4.00
2019-01-08T12:16:26.799Z,4.23
2019-01-08T12:18:55.004Z,4.10
2019-01-08T12:21:23.239Z,4.60
2019-01-08T12:23:51.448Z,4.27
2019-01-08T12:26:19.687Z,4.13
2019-01-08T12:28:47.900Z,3.60
2019-01-08T12:31:16.137Z,3.73
2019-01-08T12:33:44.367Z,4.47
2019-01-08T12:36:12.574Z,3.63
2019-01-08T12:38:40.811Z,3.90
2019-01-08T12:41:09.096Z,3.33
2019-01-08T12:43:37.326Z,4.10
2019-01-08T12:46:05.535Z,3.30
2019-01-08T12:48:33.769Z,4.23
2019-01-08T12:51:02.018Z,3.83
2019-01-08T12:53:30.216Z,4.63
2019-01-08T12:55:58.420Z,4.70
2019-01-08T12:58:26.656Z,3.07
2019-01-08T13:00:54.869Z,4.40
2019-01-08T13:03:23.115Z,4.30
2019-01-08T13:05:51.324Z,4.57
2019-01-08T13:08:19.536Z,3.77
2019-01-08T13:10:47.771Z,3.60
2019-01-08T13:13:15.976Z,3.63
2019-01-08T13:15:44.217Z,5.10
2019-01-08T13:18:12.428Z,3.50
2019-01-08T13:20:40.659Z,4.40
2019-01-08T13:23:08.872Z,4.23
2019-01-08T13:25:37.107Z,4.17
2019-01-08T13:28:05.314Z,4.93
2019-01-08T13:30:33.547Z,4.67
2019-01-08T13:33:01.760Z,3.83
2019-01-08T13:35:29.993Z,4.17
2019-01-08T13:37:58.203Z,5.73
2019-01-08T13:40:26.439Z,4.47
2019-01-08T13:42:54.691Z,4.73
2019-01-08T13:45:22.931Z,3.37
2019-01-08T13:47:51.131Z,3.13
2019-01-08T13:50:19.367Z,4.23
2019-01-08T13:52:47.572Z,3.80
2019-01-08T13:55:15.816Z,4.10
2019-01-08T13:57:44.029Z,4.57
2019-01-08T14:00:12.328Z,3.83
2019-01-08T14:02:40.531Z,3.80
2019-01-08T14:05:08.767Z,4.30
2019-01-08T14:07:36.980Z,4.07
2019-01-08T14:10:06.282Z,3.80
2019-01-08T14:12:34.493Z,3.33
2019-01-08T14:15:02.727Z,4.50
2019-01-08T14:17:30.931Z,3.43
2019-01-08T14:19:59.167Z,4.10
2019-01-08T14:22:27.375Z,4.23
2019-01-08T14:24:55.611Z,4.13
2019-01-08T14:27:23.824Z,3.80
2019-01-08T14:29:52.064Z,3.70
2019-01-08T14:32:20.270Z,4.20
2019-01-08T14:34:48.503Z,4.60
2019-01-08T14:37:16.711Z,5.03
2019-01-08T14:39:44.943Z,4.37
2019-01-08T14:42:13.183Z,4.77
2019-01-08T14:44:41.455Z,5.07
2019-01-08T14:47:09.691Z,4.13
2019-01-08T14:49:37.900Z,4.20
2019-01-08T14:52:06.135Z,4.27
2019-01-08T14:54:34.353Z,4.40
2019-01-08T14:57:02.583Z,4.60
2019-01-08T14:59:30.796Z,4.13
2019-01-08T15:01:59.031Z,3.97
2019-01-08T15:04:27.235Z,4.80
2019-01-08T15:06:55.471Z,4.47
2019-01-08T15:09:23.688Z,4.50
2019-01-08T15:11:52.296Z,4.77
2019-01-08T15:14:20.499Z,4.07
2019-01-08T15:16:48.739Z,3.63
2019-01-08T15:19:16.952Z,4.33
2019-01-08T15:21:45.183Z,4.00
2019-01-08T15:24:13.396Z,3.27
2019-01-08T15:26:41.640Z,4.40
2019-01-08T15:29:09.848Z,3.87
2019-01-08T15:31:38.087Z,3.50
2019-01-08T15:34:06.290Z,4.70
2019-01-08T15:36:34.527Z,3.90
2019-01-08T15:39:03.679Z,4.30
2019-01-08T15:41:31.915Z,4.07
2019-01-08T15:44:00.128Z,4.47
2019-01-08T15:46:28.362Z,3.80
2019-01-08T15:48:56.568Z,4.07
2019-01-08T15:51:24.802Z,4.00
2019-01-08T15:53:53.084Z,4.40
2019-01-08T15:56:21.319Z,4.10
2019-01-08T15:58:49.532Z,5.60
2019-01-08T16:01:17.774Z,4.10
2019-01-08T16:03:46.005Z,3.87
2019-01-08T16:06:14.214Z,4.57
2019-01-08T16:08:42.444Z,4.47
2019-01-08T16:11:10.647Z,4.33
2019-01-08T16:13:38.893Z,4.57
2019-01-08T16:16:07.095Z,4.47
2019-01-08T16:18:35.424Z,5.20
2019-01-08T16:21:03.543Z,4.63
2019-01-08T16:23:31.790Z,4.37
2019-01-08T16:25:59.992Z,5.03
2019-01-08T16:28:28.227Z,4.53
2019-01-08T16:30:56.535Z,3.53
2019-01-08T16:33:24.776Z,4.87
2019-01-08T16:35:52.987Z,3.93
2019-01-08T16:38:21.224Z,3.93
2019-01-08T16:40:49.429Z,4.73
2019-01-08T16:43:17.666Z,5.20
2019-01-08T16:45:45.868Z,4.07
2019-01-08T16:48:14.108Z,4.30
2019-01-08T16:50:42.315Z,5.20
2019-01-08T16:53:10.556Z,5.40
2019-01-08T16:55:38.760Z,4.90
2019-01-08T16:58:07.000Z,4.63
2019-01-08T17:00:35.587Z,4.57
2019-01-08T17:03:03.824Z,5.00
2019-01-08T17:05:32.031Z,5.50
2019-01-08T17:08:00.275Z,4.30
2019-01-08T17:10:28.483Z,4.43
2019-01-08T17:12:56.723Z,5.00
2019-01-08T17:15:24.933Z,5.30
2019-01-08T17:17:53.164Z,4.90
2019-01-08T17:20:21.375Z,5.17
2019-01-08T17:22:49.616Z,5.67
2019-01-08T17:25:17.831Z,3.67
2019-01-08T17:27:46.067Z,4.23
2019-01-08T17:30:14.271Z,5.00
2019-01-08T17:32:42.488Z,4.67
2019-01-08T17:35:10.724Z,5.60
2019-01-08T17:37:38.963Z,5.00
2019-01-08T17:40:07.745Z,5.03
2019-01-08T17:42:35.951Z,4.40
2019-01-08T17:45:05.776Z,3.67
2019-01-08T17:47:33.988Z,4.77
2019-01-08T17:50:02.228Z,4.90
2019-01-08T17:52:30.440Z,4.53
2019-01-08T17:54:58.684Z,4.33
2019-01-08T17:57:26.892Z,5.80
2019-01-08T17:59:55.129Z,4.60
2019-01-08T18:02:23.408Z,4.33
2019-01-08T18:04:51.647Z,4.37
2019-01-08T18:07:19.860Z,4.53
2019-01-08T18:09:48.101Z,5.23
2019-01-08T18:12:16.372Z,5.97
2019-01-08T18:14:44.622Z,4.23
2019-01-08T18:17:12.815Z,5.13
2019-01-08T18:19:41.056Z,4.23
2019-01-08T18:22:09.331Z,5.77
2019-01-08T18:24:37.568Z,4.60
2019-01-08T18:27:05.779Z,5.40
2019-01-08T18:29:34.088Z,5.40
2019-01-08T18:32:02.294Z,4.17
2019-01-08T18:34:30.539Z,6.03
2019-01-08T18:36:58.756Z,6.10
2019-01-08T18:39:27.003Z,4.47
2019-01-08T18:41:55.385Z,6.80
2019-01-08T18:44:23.624Z,5.57
2019-01-08T18:46:51.863Z,4.37
2019-01-08T18:49:20.071Z,4.43
2019-01-08T18:51:48.311Z,3.77
2019-01-08T18:54:16.520Z,5.40
2019-01-08T18:56:44.755Z,4.63
2019-01-08T18:59:12.963Z,3.93
2019-01-08T19:01:41.205Z,4.40
2019-01-08T19:04:09.423Z,4.43
2019-01-08T19:06:37.660Z,4.63
2019-01-08T19:09:25.215Z,4.80
2019-01-08T19:11:53.623Z,3.70
2019-01-08T19:14:23.420Z,4.47
2019-01-08T19:16:51.651Z,3.87
2019-01-08T19:19:19.855Z,3.93
2019-01-08T19:21:48.167Z,4.33
2019-01-08T19:24:16.371Z,5.67
2019-01-08T19:26:44.540Z,4.40
2019-01-08T19:29:12.743Z,3.80
2019-01-08T19:31:41.056Z,4.20
2019-01-08T19:34:09.704Z,4.90
2019-01-08T19:36:37.899Z,4.07
2019-01-08T19:39:06.586Z,4.17
2019-01-08T19:41:34.823Z,5.00
2019-01-08T19:44:03.044Z,4.63
2019-01-08T19:46:32.018Z,5.27
2019-01-08T19:49:00.159Z,4.60
2019-01-08T19:51:28.392Z,4.53
2019-01-08T19:53:56.606Z,3.87
2019-01-08T19:56:24.840Z,3.97
2019-01-08T19:58:53.056Z,4.70
2019-01-08T20:01:21.298Z,3.93
2019-01-08T20:03:49.503Z,4.13
2019-01-08T20:06:17.816Z,3.87
2019-01-08T20:08:48.798Z,4.33
2019-01-08T20:11:15.914Z,5.37
2019-01-08T20:13:44.127Z,4.20
2019-01-08T20:16:12.444Z,4.63
2019-01-08T20:18:45.107Z,4.20
2019-01-08T20:21:10.536Z,4.23
2019-01-08T20:23:38.743Z,3.70
2019-01-08T20:26:06.983Z,4.27
2019-01-08T20:28:35.220Z,4.90
2019-01-08T20:31:03.491Z,4.20
2019-01-08T20:33:31.730Z,3.40
2019-01-08T20:35:59.940Z,3.93
2019-01-08T20:38:28.173Z,3.67
2019-01-08T20:40:56.387Z,4.13
2019-01-08T20:43:24.624Z,3.67
2019-01-08T20:45:52.836Z,3.30
2019-01-08T20:48:21.080Z,4.17
2019-01-08T20:50:49.288Z,3.80
2019-01-08T20:53:17.527Z,4.03
2019-01-08T20:55:45.744Z,3.50
2019-01-08T20:58:13.971Z,3.20
2019-01-08T21:00:42.248Z,4.30
2019-01-08T21:03:10.493Z,3.20
2019-01-08T21:05:38.708Z,3.50
2019-01-08T21:08:07.015Z,3.20
2019-01-08T21:10:35.232Z,3.43
2019-01-08T21:13:03.465Z,3.47
2019-01-08T21:15:31.672Z,3.80
2019-01-08T21:17:59.909Z,3.67
2019-01-08T21:20:28.123Z,3.30
2019-01-08T21:22:56.355Z,3.70
2019-01-08T21:25:24.572Z,3.43
2019-01-08T21:27:52.812Z,3.43
2019-01-08T21:30:21.127Z,3.53
2019-01-08T21:32:49.355Z,3.10
2019-01-08T21:35:17.564Z,3.60
2019-01-08T21:37:45.889Z,3.50
2019-01-08T21:40:14.027Z,3.23
2019-01-08T21:42:42.267Z,3.47
2019-01-08T21:45:10.543Z,3.83
2019-01-08T21:47:38.751Z,3.60
2019-01-08T21:50:07.560Z,3.33
2019-01-08T21:52:35.768Z,3.60
2019-01-08T21:55:04.586Z,3.30
2019-01-08T21:57:32.796Z,3.57
2019-01-08T22:00:01.029Z,3.37
2019-01-08T22:02:29.239Z,4.07
2019-01-08T22:04:57.560Z,3.67
2019-01-08T22:07:25.766Z,3.97
2019-01-08T22:09:54.016Z,3.93
2019-01-08T22:12:22.218Z,4.50
2019-01-08T22:14:50.465Z,3.03
2019-01-08T22:17:18.680Z,4.13
2019-01-08T22:19:46.912Z,5.17
2019-01-08T22:22:15.115Z,3.40
2019-01-08T22:24:43.436Z,3.63
2019-01-08T22:27:11.651Z,3.80
2019-01-08T22:29:39.926Z,3.93
2019-01-08T22:32:08.235Z,3.70
2019-01-08T22:34:36.448Z,3.87
2019-01-08T22:37:04.684Z,3.77
2019-01-08T22:39:32.891Z,3.60
2019-01-08T22:42:01.133Z,3.07
2019-01-08T22:44:29.344Z,3.57
2019-01-08T22:46:57.580Z,3.93
2019-01-08T22:49:25.795Z,3.47
2019-01-08T22:51:54.031Z,4.57
2019-01-08T22:54:22.244Z,3.83
2019-01-08T22:56:50.479Z,3.43
2019-01-08T22:59:18.724Z,4.70
2019-01-08T23:01:47.380Z,3.80
2019-01-08T23:04:16.160Z,4.03
2019-01-08T23:06:44.371Z,4.03
2019-01-08T23:09:12.683Z,4.13
2019-01-08T23:11:40.960Z,4.37
2019-01-08T23:14:09.167Z,4.60
2019-01-08T23:16:37.473Z,4.00
2019-01-08T23:19:05.679Z,3.63
2019-01-08T23:21:33.926Z,4.13
2019-01-08T23:24:02.132Z,3.43
2019-01-08T23:26:30.368Z,3.33
2019-01-08T23:28:58.575Z,4.83
2019-01-08T23:31:26.790Z,3.73
2019-01-08T23:33:55.023Z,4.23
2019-01-08T23:36:23.308Z,4.30
2019-01-08T23:38:51.547Z,3.63
2019-01-08T23:41:19.788Z,4.07
2019-01-08T23:43:48.099Z,3.40
2019-01-08T23:46:16.330Z,4.23
2019-01-08T23:48:44.616Z,3.50
2019-01-08T23:51:12.921Z,3.33
2019-01-08T23:53:43.550Z,3.43
2019-01-08T23:56:11.785Z,3.47
2019-01-08T23:58:40.471Z,3.40
